METAR Data
IDs: Format: Raw Decoded Include TAF

Data at: 0709 UTC 18 Sep 2021

VTUQ 180700Z 09005KT 020V140 9999 SCT030 35/27 Q1009 NOSIG